createdAt,value
2018-05-08T00:01:31.853Z,11.10
2018-05-08T00:03:57.921Z,11.10
2018-05-08T00:06:23.986Z,11.00
2018-05-08T00:08:50.876Z,10.90
2018-05-08T00:11:16.888Z,10.80
2018-05-08T00:13:42.953Z,10.80
2018-05-08T00:16:09.131Z,10.80
2018-05-08T00:18:35.231Z,10.70
2018-05-08T00:21:01.325Z,10.70
2018-05-08T00:23:28.117Z,10.60
2018-05-08T00:25:54.233Z,10.60
2018-05-08T00:28:20.317Z,10.50
2018-05-08T00:30:46.373Z,10.50
2018-05-08T00:33:12.446Z,10.50
2018-05-08T00:35:38.522Z,10.50
2018-05-08T00:38:04.580Z,10.50
2018-05-08T00:40:30.669Z,10.40
2018-05-08T00:42:56.752Z,10.40
2018-05-08T00:45:22.835Z,10.30
2018-05-08T00:47:48.924Z,10.20
2018-05-08T00:50:14.986Z,10.10
2018-05-08T00:52:41.792Z,9.90
2018-05-08T00:55:07.872Z,9.90
2018-05-08T00:57:33.955Z,9.90
2018-05-08T01:00:00.075Z,9.80
2018-05-08T01:02:26.165Z,9.80
2018-05-08T01:04:52.317Z,9.80
2018-05-08T01:07:18.351Z,9.70
2018-05-08T01:09:44.432Z,9.70
2018-05-08T01:12:10.581Z,9.60
2018-05-08T01:14:36.632Z,9.60
2018-05-08T01:17:02.773Z,9.60
2018-05-08T01:19:29.535Z,9.50
2018-05-08T01:21:55.612Z,9.40
2018-05-08T01:24:22.421Z,9.40
2018-05-08T01:26:48.496Z,9.40
2018-05-08T01:29:14.564Z,9.40
2018-05-08T01:31:40.614Z,9.30
2018-05-08T01:34:06.699Z,9.20
2018-05-08T01:36:32.769Z,9.10
2018-05-08T01:38:59.569Z,9.10
2018-05-08T01:41:25.628Z,9.00
2018-05-08T01:43:51.730Z,9.00
2018-05-08T01:46:17.818Z,8.90
2018-05-08T01:48:43.920Z,8.90
2018-05-08T01:51:10.029Z,8.80
2018-05-08T01:53:36.130Z,8.90
2018-05-08T01:56:03.013Z,8.70
2018-05-08T01:58:29.117Z,8.70
2018-05-08T02:00:55.241Z,8.60
2018-05-08T02:03:21.349Z,8.60
2018-05-08T02:05:47.473Z,8.50
2018-05-08T02:08:13.577Z,8.50
2018-05-08T02:10:39.704Z,8.30
2018-05-08T02:13:05.797Z,8.30
2018-05-08T02:15:31.912Z,8.30
2018-05-08T02:17:58.724Z,8.30
2018-05-08T02:20:24.881Z,8.20
2018-05-08T02:22:50.933Z,8.20
2018-05-08T02:25:17.068Z,8.20
2018-05-08T02:27:43.995Z,8.10
2018-05-08T02:30:10.099Z,8.10
2018-05-08T02:32:36.213Z,8.10
2018-05-08T02:35:03.097Z,7.90
2018-05-08T02:37:29.201Z,7.90
2018-05-08T02:39:56.052Z,8.00
2018-05-08T02:42:22.133Z,7.90
2018-05-08T02:44:48.245Z,7.90
2018-05-08T02:47:15.069Z,7.70
2018-05-08T02:49:41.214Z,7.70
2018-05-08T02:52:08.050Z,7.70
2018-05-08T02:54:34.137Z,7.60
2018-05-08T02:57:00.321Z,7.70
2018-05-08T02:59:26.416Z,7.60
2018-05-08T03:01:52.563Z,7.60
2018-05-08T03:04:18.657Z,7.50
2018-05-08T03:06:44.785Z,7.50
2018-05-08T03:09:10.913Z,7.30
2018-05-08T03:11:37.011Z,7.20
2018-05-08T03:14:03.138Z,7.20
2018-05-08T03:16:29.242Z,7.20
2018-05-08T03:18:55.340Z,7.20
2018-05-08T03:21:21.466Z,7.20
2018-05-08T03:23:47.624Z,7.20
2018-05-08T03:26:13.788Z,7.20
2018-05-08T03:28:39.889Z,7.30
2018-05-08T03:31:06.009Z,7.30
2018-05-08T03:33:32.128Z,7.20
2018-05-08T03:35:58.280Z,7.20
2018-05-08T03:38:25.112Z,7.20
2018-05-08T03:40:51.213Z,7.20
2018-05-08T03:43:17.384Z,7.20
2018-05-08T03:45:43.493Z,7.20
2018-05-08T03:48:09.584Z,7.10
2018-05-08T03:50:36.445Z,7.20
2018-05-08T03:53:03.288Z,7.20
2018-05-08T03:55:29.405Z,7.20
2018-05-08T03:57:55.546Z,7.10
2018-05-08T04:00:33.912Z,7.10
2018-05-08T04:06:20.541Z,7.10
2018-05-08T04:08:46.620Z,7.10
2018-05-08T04:11:12.745Z,7.00
2018-05-08T04:13:39.560Z,6.90
2018-05-08T04:16:05.643Z,6.90
2018-05-08T04:18:31.758Z,6.90
2018-05-08T04:20:57.856Z,6.90
2018-05-08T04:23:23.936Z,6.90
2018-05-08T04:25:50.072Z,6.90
2018-05-08T04:28:16.260Z,7.00
2018-05-08T04:30:42.348Z,7.00
2018-05-08T04:33:08.489Z,7.10
2018-05-08T04:35:34.789Z,7.10
2018-05-08T04:38:00.877Z,7.20
2018-05-08T04:40:27.728Z,7.40
2018-05-08T04:42:53.857Z,7.40
2018-05-08T04:45:19.954Z,7.40
2018-05-08T04:47:46.117Z,7.50
2018-05-08T04:50:12.213Z,7.60
2018-05-08T04:52:38.332Z,7.80
2018-05-08T04:55:05.177Z,7.80
2018-05-08T04:57:31.326Z,7.80
2018-05-08T04:59:58.181Z,8.10
2018-05-08T05:02:25.039Z,8.20
2018-05-08T05:04:51.889Z,8.30
2018-05-08T05:07:18.717Z,8.50
2018-05-08T05:09:44.840Z,8.50
2018-05-08T05:12:10.931Z,8.60
2018-05-08T05:14:37.827Z,8.90
2018-05-08T05:17:03.915Z,8.90
2018-05-08T05:19:30.755Z,9.30
2018-05-08T05:21:56.872Z,9.30
2018-05-08T05:24:23.021Z,9.50
2018-05-08T05:26:49.166Z,9.60
2018-05-08T05:29:15.281Z,9.80
2018-05-08T05:31:41.404Z,10.00
2018-05-08T05:34:07.487Z,10.20
2018-05-08T05:36:33.606Z,10.40
2018-05-08T05:38:59.703Z,10.50
2018-05-08T05:41:25.842Z,10.70
2018-05-08T05:43:51.968Z,10.90
2018-05-08T05:46:18.816Z,11.30
2018-05-08T05:48:45.665Z,11.40
2018-05-08T05:51:12.490Z,11.60
2018-05-08T05:53:38.566Z,11.60
2018-05-08T05:56:05.425Z,11.90
2018-05-08T05:58:32.253Z,12.00
2018-05-08T06:00:58.349Z,12.00
2018-05-08T06:03:24.456Z,12.20
2018-05-08T06:05:51.406Z,12.50
2018-05-08T06:08:18.357Z,12.70
2018-05-08T06:10:45.177Z,12.80
2018-05-08T06:13:11.284Z,12.80
2018-05-08T06:15:37.368Z,12.90
2018-05-08T06:18:03.605Z,12.90
2018-05-08T06:20:29.789Z,13.00
2018-05-08T06:22:55.828Z,13.20
2018-05-08T06:25:21.934Z,13.40
2018-05-08T06:27:48.053Z,13.50
2018-05-08T06:30:14.925Z,13.80
2018-05-08T06:32:41.008Z,13.80
2018-05-08T06:35:07.122Z,13.80
2018-05-08T06:37:33.949Z,13.90
2018-05-08T06:40:00.065Z,13.90
2018-05-08T06:42:26.152Z,14.00
2018-05-08T06:44:52.228Z,14.20
2018-05-08T06:47:18.347Z,14.40
2018-05-08T06:49:45.168Z,14.60
2018-05-08T06:52:11.296Z,14.60
2018-05-08T06:54:37.405Z,14.80
2018-05-08T06:57:03.528Z,14.90
2018-05-08T06:59:29.598Z,14.90
2018-05-08T07:01:55.710Z,15.10
2018-05-08T07:04:21.782Z,15.30
2018-05-08T07:06:47.856Z,15.30
2018-05-08T07:09:14.848Z,15.50
2018-05-08T07:11:40.864Z,15.50
2018-05-08T07:14:06.968Z,15.70
2018-05-08T07:16:33.033Z,15.70
2018-05-08T07:18:59.859Z,16.00
2018-05-08T07:21:25.958Z,16.00
2018-05-08T07:23:52.063Z,16.10
2018-05-08T07:26:18.128Z,16.20
2018-05-08T07:28:44.225Z,16.30
2018-05-08T07:31:10.304Z,16.40
2018-05-08T07:33:36.562Z,16.50
2018-05-08T07:36:02.688Z,16.60
2018-05-08T07:38:28.780Z,16.70
2018-05-08T07:40:54.877Z,16.90
2018-05-08T07:43:20.991Z,17.00
2018-05-08T07:45:47.161Z,17.10
2018-05-08T07:48:13.249Z,17.20
2018-05-08T07:50:40.105Z,17.40
2018-05-08T07:53:06.937Z,17.50
2018-05-08T07:55:33.057Z,17.40
2018-05-08T07:57:59.147Z,17.60
2018-05-08T08:00:25.264Z,17.60
2018-05-08T08:02:52.157Z,17.90
2018-05-08T08:05:18.256Z,17.90
2018-05-08T08:07:44.360Z,18.00
2018-05-08T08:10:10.438Z,18.00
2018-05-08T08:12:37.292Z,18.10
2018-05-08T08:15:04.211Z,18.10
2018-05-08T08:17:30.301Z,18.10
2018-05-08T08:19:56.437Z,18.30
2018-05-08T08:22:23.273Z,18.50
2018-05-08T08:24:49.373Z,18.50
2018-05-08T08:27:15.475Z,18.60
2018-05-08T08:29:42.324Z,18.80
2018-05-08T08:32:08.412Z,18.70
2018-05-08T08:34:34.530Z,18.70
2018-05-08T08:37:00.630Z,18.70
2018-05-08T08:39:27.460Z,18.90
2018-05-08T08:41:53.588Z,18.90
2018-05-08T08:44:19.679Z,18.90
2018-05-08T08:46:45.818Z,18.90
2018-05-08T08:49:12.004Z,19.00
2018-05-08T08:51:38.092Z,19.10
2018-05-08T08:54:04.193Z,19.30
2018-05-08T08:56:30.349Z,19.50
2018-05-08T08:58:56.444Z,19.50
2018-05-08T09:01:22.528Z,19.60
2018-05-08T09:03:49.393Z,19.50
2018-05-08T09:06:16.218Z,19.70
2018-05-08T09:08:42.325Z,19.70
2018-05-08T09:11:08.467Z,19.70
2018-05-08T09:13:35.311Z,19.90
2018-05-08T09:16:01.453Z,19.90
2018-05-08T09:18:27.560Z,20.00
2018-05-08T09:20:54.389Z,20.10
2018-05-08T09:23:20.513Z,20.10
2018-05-08T09:25:46.621Z,20.20
2018-05-08T09:28:12.740Z,20.50
2018-05-08T09:30:38.847Z,20.30
2018-05-08T09:33:04.980Z,20.40
2018-05-08T09:35:31.797Z,20.60
2018-05-08T09:37:57.909Z,20.60
2018-05-08T09:40:24.040Z,20.60
2018-05-08T09:42:50.910Z,20.90
2018-05-08T09:45:17.088Z,20.80
2018-05-08T09:47:43.198Z,20.90
2018-05-08T09:50:09.293Z,20.90
2018-05-08T09:52:35.406Z,20.90
2018-05-08T09:55:01.485Z,21.10
2018-05-08T09:57:28.353Z,21.40
2018-05-08T09:59:54.520Z,21.40
2018-05-08T10:02:20.623Z,21.30
2018-05-08T10:04:47.490Z,21.50
2018-05-08T10:07:13.584Z,21.50
2018-05-08T10:09:39.844Z,21.60
2018-05-08T10:12:05.945Z,21.50
2018-05-08T10:14:32.044Z,21.70
2018-05-08T10:16:58.161Z,21.90
2018-05-08T10:19:24.977Z,22.00
2018-05-08T10:21:51.093Z,22.00
2018-05-08T10:24:17.197Z,22.20
2018-05-08T10:26:44.138Z,22.30
2018-05-08T10:29:10.206Z,22.30
2018-05-08T10:31:37.069Z,22.40
2018-05-08T10:34:03.181Z,22.40
2018-05-08T10:36:30.001Z,22.50
2018-05-08T10:38:56.117Z,22.40
2018-05-08T10:41:22.186Z,22.40
2018-05-08T10:43:48.305Z,22.60
2018-05-08T10:46:14.404Z,22.70
2018-05-08T10:48:41.229Z,23.00
2018-05-08T10:51:07.445Z,22.90
2018-05-08T10:53:33.548Z,23.10
2018-05-08T10:55:59.653Z,23.20
2018-05-08T10:58:25.721Z,23.20
2018-05-08T11:00:51.893Z,23.20
2018-05-08T11:03:17.963Z,23.30
2018-05-08T11:05:44.033Z,23.40
2018-05-08T11:08:10.116Z,23.40
2018-05-08T11:10:36.210Z,23.50
2018-05-08T11:13:02.314Z,23.60
2018-05-08T11:15:28.406Z,23.60
2018-05-08T11:17:54.578Z,23.50
2018-05-08T11:20:20.672Z,23.30
2018-05-08T11:22:46.748Z,23.50
2018-05-08T11:25:12.862Z,23.60
2018-05-08T11:27:38.953Z,23.80
2018-05-08T11:30:05.068Z,23.90
2018-05-08T11:32:31.157Z,24.00
2018-05-08T11:34:57.271Z,24.10
2018-05-08T11:37:24.116Z,24.00
2018-05-08T11:39:50.222Z,24.10
2018-05-08T11:42:16.306Z,24.20
2018-05-08T11:44:43.252Z,23.90
2018-05-08T11:47:09.265Z,23.90
2018-05-08T11:49:35.366Z,24.00
2018-05-08T11:52:01.481Z,24.10
2018-05-08T11:54:28.306Z,24.40
2018-05-08T11:56:54.402Z,24.40
2018-05-08T11:59:20.497Z,24.60
2018-05-08T12:01:46.622Z,24.70
2018-05-08T12:04:12.728Z,24.70
2018-05-08T12:06:38.823Z,24.90
2018-05-08T12:09:05.757Z,24.90
2018-05-08T12:11:31.788Z,24.80
2018-05-08T12:13:57.912Z,24.80
2018-05-08T12:16:24.003Z,24.90
2018-05-08T12:18:50.837Z,25.10
2018-05-08T12:21:16.949Z,25.30
2018-05-08T12:23:43.057Z,25.40
2018-05-08T12:26:09.145Z,25.50
2018-05-08T12:28:35.257Z,25.60
2018-05-08T12:31:01.333Z,25.90
2018-05-08T12:33:28.552Z,25.80
2018-05-08T12:35:54.672Z,25.90
2018-05-08T12:38:20.793Z,25.90
2018-05-08T12:40:47.638Z,26.00
2018-05-08T12:43:14.480Z,25.80
2018-05-08T12:45:40.649Z,25.80
2018-05-08T12:48:06.810Z,25.90
2018-05-08T12:50:33.038Z,26.20
2018-05-08T12:52:59.033Z,26.30
2018-05-08T12:55:25.121Z,26.40
2018-05-08T12:57:51.240Z,26.50
2018-05-08T13:00:17.345Z,26.50
2018-05-08T13:02:43.779Z,26.50
2018-05-08T13:05:09.668Z,26.50
2018-05-08T13:07:35.757Z,26.30
2018-05-08T13:10:01.893Z,26.60
2018-05-08T13:12:28.120Z,26.80
2018-05-08T13:14:54.216Z,27.00
2018-05-08T13:17:20.292Z,27.10
2018-05-08T13:19:46.411Z,27.10
2018-05-08T13:22:12.497Z,27.30
2018-05-08T13:24:38.616Z,27.50
2018-05-08T13:27:04.709Z,27.20
2018-05-08T13:29:30.901Z,27.50
2018-05-08T13:31:57.002Z,27.50
2018-05-08T13:34:23.821Z,29.40
2018-05-08T13:36:50.694Z,30.00
2018-05-08T13:39:16.795Z,29.90
2018-05-08T13:41:42.916Z,30.30
2018-05-08T13:44:09.010Z,31.70
2018-05-08T13:46:35.225Z,32.50
2018-05-08T13:49:02.069Z,32.20
2018-05-08T13:51:28.200Z,32.20
2018-05-08T13:53:54.334Z,32.70
2018-05-08T13:56:20.457Z,32.90
2018-05-08T13:58:46.596Z,33.30
2018-05-08T14:01:12.726Z,33.50
2018-05-08T14:03:38.822Z,33.80
2018-05-08T14:06:05.653Z,34.50
2018-05-08T14:08:31.794Z,34.50
2018-05-08T14:10:57.880Z,34.40
2018-05-08T14:13:23.997Z,34.20
2018-05-08T14:15:50.156Z,34.10
2018-05-08T14:18:16.268Z,34.40
2018-05-08T14:20:43.101Z,35.00
2018-05-08T14:23:09.206Z,35.20
2018-05-08T14:25:35.345Z,35.70
2018-05-08T14:28:01.550Z,35.20
2018-05-08T14:30:28.017Z,34.90
2018-05-08T14:32:54.126Z,35.30
2018-05-08T14:35:20.993Z,35.30
2018-05-08T14:37:47.836Z,35.70
2018-05-08T14:40:14.656Z,35.20
2018-05-08T14:42:40.773Z,35.40
2018-05-08T14:45:06.890Z,35.10
2018-05-08T14:47:32.961Z,35.20
2018-05-08T14:49:59.058Z,35.40
2018-05-08T14:52:25.133Z,35.70
2018-05-08T14:54:51.217Z,36.20
2018-05-08T14:57:18.075Z,36.50
2018-05-08T14:59:45.684Z,36.10
2018-05-08T15:02:11.749Z,36.10
2018-05-08T15:04:37.864Z,36.10
2018-05-08T15:07:03.936Z,36.10
2018-05-08T15:09:30.018Z,36.00
2018-05-08T15:11:56.148Z,36.30
2018-05-08T15:14:22.237Z,36.10
2018-05-08T15:16:48.326Z,36.10
2018-05-08T15:19:14.421Z,36.40
2018-05-08T15:21:40.515Z,36.20
2018-05-08T15:24:06.638Z,36.50
2018-05-08T15:26:32.739Z,36.50
2018-05-08T15:28:58.849Z,36.00
2018-05-08T15:31:24.917Z,36.10
2018-05-08T15:33:50.993Z,35.70
2018-05-08T15:36:17.070Z,35.50
2018-05-08T15:38:43.176Z,35.70
2018-05-08T15:41:10.026Z,36.30
2018-05-08T15:43:36.094Z,36.30
2018-05-08T15:46:02.209Z,35.90
2018-05-08T15:48:28.298Z,35.90
2018-05-08T15:50:54.417Z,35.60
2018-05-08T15:53:20.492Z,35.70
2018-05-08T15:55:47.345Z,35.80
2018-05-08T15:58:14.164Z,36.00
2018-05-08T16:00:40.284Z,36.00
2018-05-08T16:03:06.366Z,35.90
2018-05-08T16:05:32.465Z,35.70
2018-05-08T16:07:58.577Z,35.70
2018-05-08T16:10:24.706Z,35.60
2018-05-08T16:12:50.777Z,35.80
2018-05-08T16:15:16.841Z,35.60
2018-05-08T16:17:43.044Z,36.00
2018-05-08T16:20:09.117Z,36.00
2018-05-08T16:22:35.216Z,35.50
2018-05-08T16:25:01.285Z,35.70
2018-05-08T16:27:27.365Z,35.70
2018-05-08T16:29:54.244Z,35.30
2018-05-08T16:32:20.396Z,35.30
2018-05-08T16:34:46.491Z,35.10
2018-05-08T16:37:12.940Z,34.80
2018-05-08T16:39:39.776Z,34.50
2018-05-08T16:42:05.951Z,35.00
2018-05-08T16:44:32.068Z,34.70
2018-05-08T16:46:58.261Z,34.70
2018-05-08T16:49:24.344Z,35.20
2018-05-08T16:51:51.195Z,35.30
2018-05-08T16:54:17.773Z,35.10
2018-05-08T16:56:45.357Z,35.10
2018-05-08T16:59:11.473Z,35.10
2018-05-08T17:01:38.385Z,35.10
2018-05-08T17:04:04.502Z,35.10
2018-05-08T17:06:30.584Z,34.70
2018-05-08T17:08:56.710Z,35.00
2018-05-08T17:11:22.838Z,34.90
2018-05-08T17:13:48.925Z,34.70
2018-05-08T17:16:15.764Z,34.40
2018-05-08T17:18:41.982Z,34.40
2018-05-08T17:21:08.061Z,34.50
2018-05-08T17:23:34.145Z,34.20
2018-05-08T17:26:00.300Z,34.50
2018-05-08T17:28:26.393Z,35.00
2018-05-08T17:30:52.502Z,34.80
2018-05-08T17:33:19.458Z,34.80
2018-05-08T17:35:45.515Z,34.00
2018-05-08T17:38:11.617Z,33.60
2018-05-08T17:40:38.453Z,33.60
2018-05-08T17:43:04.561Z,33.60
2018-05-08T17:45:30.684Z,33.40
2018-05-08T17:47:56.796Z,32.80
2018-05-08T17:50:23.287Z,32.60
2018-05-08T17:52:50.137Z,32.10
2018-05-08T17:55:16.278Z,31.70
2018-05-08T17:57:42.734Z,31.50
2018-05-08T18:00:08.858Z,31.40
2018-05-08T18:02:35.005Z,31.00
2018-05-08T18:05:01.125Z,30.50
2018-05-08T18:07:27.297Z,30.50
2018-05-08T18:09:53.421Z,30.30
2018-05-08T18:12:19.533Z,30.00
2018-05-08T18:14:46.400Z,29.40
2018-05-08T18:17:12.497Z,29.30
2018-05-08T18:19:38.596Z,28.90
2018-05-08T18:22:04.716Z,28.20
2018-05-08T18:24:30.799Z,27.30
2018-05-08T18:26:56.912Z,25.80
2018-05-08T18:29:23.035Z,25.00
2018-05-08T18:31:49.857Z,24.40
2018-05-08T18:34:16.739Z,23.90
2018-05-08T18:36:42.822Z,23.30
2018-05-08T18:39:08.901Z,22.80
2018-05-08T18:41:35.741Z,22.30
2018-05-08T18:44:01.915Z,21.80
2018-05-08T18:46:27.996Z,22.90
2018-05-08T18:48:54.056Z,21.40
2018-05-08T18:51:20.133Z,20.60
2018-05-08T18:53:46.243Z,20.30
2018-05-08T18:56:13.060Z,20.00
2018-05-08T18:58:39.128Z,19.70
2018-05-08T19:01:05.237Z,19.30
2018-05-08T19:03:31.430Z,18.90
2018-05-08T19:05:57.420Z,18.40
2018-05-08T19:08:23.927Z,18.40
2018-05-08T19:10:56.178Z,18.30
2018-05-08T19:13:23.030Z,18.20
2018-05-08T19:15:55.021Z,18.10
2018-05-08T19:18:27.488Z,17.90
2018-05-08T19:20:53.688Z,17.50
2018-05-08T19:23:19.789Z,17.40
2018-05-08T19:25:46.626Z,17.20
2018-05-08T19:28:18.805Z,17.00
2018-05-08T19:30:44.935Z,17.00
2018-05-08T19:33:11.437Z,16.70
2018-05-08T19:35:44.457Z,16.60
2018-05-08T19:38:14.365Z,16.40
2018-05-08T19:40:40.945Z,16.00
2018-05-08T19:43:07.477Z,16.50
2018-05-08T19:45:34.706Z,16.20
2018-05-08T19:48:00.804Z,16.30
2018-05-08T19:50:26.930Z,16.10
2018-05-08T19:52:53.008Z,16.00
2018-05-08T19:55:19.861Z,15.80
2018-05-08T19:57:46.695Z,15.70
2018-05-08T20:00:12.787Z,15.60
2018-05-08T20:02:38.941Z,15.60
2018-05-08T20:05:05.024Z,15.30
2018-05-08T20:07:31.494Z,15.20
2018-05-08T20:09:57.573Z,15.10
2018-05-08T20:12:23.785Z,15.10
2018-05-08T20:14:49.850Z,15.00
2018-05-08T20:17:15.965Z,14.90
2018-05-08T20:19:42.557Z,15.00
2018-05-08T20:22:08.589Z,14.90
2018-05-08T20:24:34.847Z,14.90
2018-05-08T20:27:01.052Z,14.90
2018-05-08T20:29:27.137Z,14.80
2018-05-08T20:31:54.047Z,14.60
2018-05-08T20:34:20.117Z,14.60
2018-05-08T20:36:46.257Z,14.50
2018-05-08T20:39:12.456Z,14.40
2018-05-08T20:41:38.936Z,14.30
2018-05-08T20:44:05.385Z,14.30
2018-05-08T20:46:31.473Z,14.40
2018-05-08T20:48:57.624Z,14.40
2018-05-08T20:51:23.783Z,14.30
2018-05-08T20:53:50.126Z,14.20
2018-05-08T20:56:16.228Z,14.20
2018-05-08T20:58:42.760Z,14.10
2018-05-08T21:01:08.992Z,14.10
2018-05-08T21:03:34.978Z,14.20
2018-05-08T21:06:01.459Z,13.90
2018-05-08T21:08:27.779Z,14.00
2018-05-08T21:10:55.429Z,13.90
2018-05-08T21:13:21.501Z,14.10
2018-05-08T21:15:47.708Z,13.90
2018-05-08T21:18:20.764Z,13.80
2018-05-08T21:20:48.349Z,13.80
2018-05-08T21:23:14.521Z,13.80
2018-05-08T21:25:40.626Z,13.70
2018-05-08T21:28:13.829Z,13.60
2018-05-08T21:30:46.723Z,13.30
2018-05-08T21:33:12.764Z,13.20
2018-05-08T21:35:38.870Z,13.00
2018-05-08T21:38:04.977Z,13.00
2018-05-08T21:40:31.792Z,13.00
2018-05-08T21:42:59.004Z,12.90
2018-05-08T21:45:25.110Z,12.90
2018-05-08T21:47:51.256Z,12.90
2018-05-08T21:50:17.395Z,13.00
2018-05-08T21:52:43.997Z,13.00
2018-05-08T21:55:10.133Z,13.60
2018-05-08T21:57:36.209Z,12.70
2018-05-08T22:00:02.325Z,12.80
2018-05-08T22:04:56.248Z,12.80
2018-05-08T22:09:51.647Z,12.70
2018-05-08T22:12:17.712Z,12.70
2018-05-08T22:14:43.799Z,12.70
2018-05-08T22:17:09.977Z,12.70
2018-05-08T22:19:36.050Z,12.70
2018-05-08T22:22:02.892Z,12.60
2018-05-08T22:24:28.959Z,12.60
2018-05-08T22:26:55.067Z,12.60
2018-05-08T22:29:21.880Z,12.60
2018-05-08T22:31:48.356Z,12.70
2018-05-08T22:34:14.748Z,12.60
2018-05-08T22:36:40.878Z,12.60
2018-05-08T22:39:07.009Z,12.40
2018-05-08T22:41:34.184Z,12.40
2018-05-08T22:44:00.330Z,12.40
2018-05-08T22:46:26.491Z,12.40
2018-05-08T22:48:52.622Z,12.40
2018-05-08T22:51:18.768Z,12.30
2018-05-08T22:53:44.842Z,12.20
2018-05-08T22:56:10.953Z,12.20
2018-05-08T22:58:37.020Z,12.10
2018-05-08T23:01:03.225Z,12.10
2018-05-08T23:03:29.357Z,12.00
2018-05-08T23:05:55.420Z,11.90
2018-05-08T23:08:21.541Z,11.90
2018-05-08T23:10:47.656Z,11.70
2018-05-08T23:13:13.937Z,11.20
2018-05-08T23:18:08.069Z,11.10
2018-05-08T23:20:35.301Z,11.20
2018-05-08T23:23:02.924Z,11.10
2018-05-08T23:25:29.416Z,11.00
2018-05-08T23:27:55.509Z,11.00
2018-05-08T23:30:21.608Z,11.00
2018-05-08T23:32:47.724Z,10.90
2018-05-08T23:35:13.856Z,10.80
2018-05-08T23:37:40.012Z,10.70
2018-05-08T23:40:06.093Z,10.70
2018-05-08T23:42:32.961Z,10.80
2018-05-08T23:44:59.781Z,10.80
2018-05-08T23:47:25.886Z,10.80
2018-05-08T23:49:52.098Z,10.80
2018-05-08T23:52:18.104Z,10.70
2018-05-08T23:54:44.213Z,10.70
2018-05-08T23:57:10.332Z,10.60
2018-05-08T23:59:36.428Z,10.60
